sensor_id;sensor_type;location;lat;lon;timestamp;pressure;altitude;pressure_sealevel;temperature;humidity
26489;BME280;14169;43.684;10.484;2022-12-11T00:00:42;99903.97;;;11.26;100.00
26489;BME280;14169;43.684;10.484;2022-12-11T00:03:08;99906.66;;;11.24;100.00
26489;BME280;14169;43.684;10.484;2022-12-11T00:05:33;99898.91;;;11.23;100.00
26489;BME280;14169;43.684;10.484;2022-12-11T00:07:59;99889.25;;;11.25;100.00
26489;BME280;14169;43.684;10.484;2022-12-11T00:10:24;99901.31;;;11.27;100.00
26489;BME280;14169;43.684;10.484;2022-12-11T00:12:50;99902.38;;;11.23;100.00
26489;BME280;14169;43.684;10.484;2022-12-11T00:15:15;99901.66;;;11.20;100.00
26489;BME280;14169;43.684;10.484;2022-12-11T00:17:41;99902.50;;;11.20;100.00
26489;BME280;14169;43.684;10.484;2022-12-11T00:20:07;99896.50;;;11.18;100.00
26489;BME280;14169;43.684;10.484;2022-12-11T00:22:32;99899.28;;;11.15;100.00
26489;BME280;14169;43.684;10.484;2022-12-11T00:24:58;99896.69;;;11.15;100.00
26489;BME280;14169;43.684;10.484;2022-12-11T00:27:24;99895.13;;;11.11;100.00
26489;BME280;14169;43.684;10.484;2022-12-11T00:29:49;99884.78;;;11.10;100.00
26489;BME280;14169;43.684;10.484;2022-12-11T00:32:14;99893.31;;;11.13;100.00
26489;BME280;14169;43.684;10.484;2022-12-11T00:34:40;99889.22;;;11.08;100.00
26489;BME280;14169;43.684;10.484;2022-12-11T00:37:05;99896.19;;;11.07;100.00
26489;BME280;14169;43.684;10.484;2022-12-11T00:39:31;99889.44;;;11.03;100.00
26489;BME280;14169;43.684;10.484;2022-12-11T00:41:56;99886.66;;;11.06;100.00
26489;BME280;14169;43.684;10.484;2022-12-11T00:44:22;99879.88;;;11.04;100.00
26489;BME280;14169;43.684;10.484;2022-12-11T00:46:48;99885.91;;;11.04;100.00
26489;BME280;14169;43.684;10.484;2022-12-11T00:49:13;99894.19;;;11.12;100.00
26489;BME280;14169;43.684;10.484;2022-12-11T00:51:38;99889.38;;;11.22;100.00
26489;BME280;14169;43.684;10.484;2022-12-11T00:54:04;99883.19;;;11.24;100.00
26489;BME280;14169;43.684;10.484;2022-12-11T00:56:30;99891.66;;;11.29;100.00
26489;BME280;14169;43.684;10.484;2022-12-11T00:58:56;99877.75;;;11.12;100.00
26489;BME280;14169;43.684;10.484;2022-12-11T01:01:23;99868.72;;;11.00;100.00
26489;BME280;14169;43.684;10.484;2022-12-11T01:03:49;99865.34;;;10.98;100.00
26489;BME280;14169;43.684;10.484;2022-12-11T01:06:18;99849.78;;;10.97;100.00
26489;BME280;14169;43.684;10.484;2022-12-11T01:08:44;99854.09;;;10.98;100.00
26489;BME280;14169;43.684;10.484;2022-12-11T01:11:12;99853.16;;;10.99;100.00
26489;BME280;14169;43.684;10.484;2022-12-11T01:13:39;99851.25;;;11.02;100.00
26489;BME280;14169;43.684;10.484;2022-12-11T01:16:09;99859.91;;;11.03;100.00
26489;BME280;14169;43.684;10.484;2022-12-11T01:18:36;99864.06;;;11.07;100.00
26489;BME280;14169;43.684;10.484;2022-12-11T01:21:06;99856.53;;;11.01;100.00
26489;BME280;14169;43.684;10.484;2022-12-11T01:23:32;99882.19;;;10.91;100.00
26489;BME280;14169;43.684;10.484;2022-12-11T01:26:13;99881.25;;;10.92;100.00
26489;BME280;14169;43.684;10.484;2022-12-11T01:28:41;99882.38;;;11.05;100.00
26489;BME280;14169;43.684;10.484;2022-12-11T01:31:12;99888.84;;;11.15;100.00
26489;BME280;14169;43.684;10.484;2022-12-11T01:33:38;99885.41;;;11.32;100.00
26489;BME280;14169;43.684;10.484;2022-12-11T01:36:13;99893.56;;;11.43;100.00
26489;BME280;14169;43.684;10.484;2022-12-11T01:38:39;99906.94;;;11.54;100.00
26489;BME280;14169;43.684;10.484;2022-12-11T01:41:06;99904.19;;;11.57;100.00
26489;BME280;14169;43.684;10.484;2022-12-11T01:43:31;99909.09;;;11.63;100.00
26489;BME280;14169;43.684;10.484;2022-12-11T01:45:57;99900.28;;;11.65;100.00
26489;BME280;14169;43.684;10.484;2022-12-11T01:48:26;99903.50;;;11.70;100.00
26489;BME280;14169;43.684;10.484;2022-12-11T01:50:55;99911.19;;;11.73;100.00
26489;BME280;14169;43.684;10.484;2022-12-11T01:53:26;99907.56;;;11.76;100.00
26489;BME280;14169;43.684;10.484;2022-12-11T01:55:54;99913.31;;;11.82;100.00
26489;BME280;14169;43.684;10.484;2022-12-11T01:58:24;99923.56;;;12.04;100.00
26489;BME280;14169;43.684;10.484;2022-12-11T02:00:52;99923.25;;;12.10;100.00
26489;BME280;14169;43.684;10.484;2022-12-11T02:03:18;99919.88;;;12.08;100.00
26489;BME280;14169;43.684;10.484;2022-12-11T02:05:43;99916.47;;;12.06;100.00
26489;BME280;14169;43.684;10.484;2022-12-11T02:08:09;99923.41;;;12.07;100.00
26489;BME280;14169;43.684;10.484;2022-12-11T02:19:09;99929.53;;;12.06;100.00
26489;BME280;14169;43.684;10.484;2022-12-11T02:21:40;99935.31;;;12.13;100.00
26489;BME280;14169;43.684;10.484;2022-12-11T02:27:07;99940.59;;;12.11;100.00
26489;BME280;14169;43.684;10.484;2022-12-11T02:32:29;99947.59;;;12.11;100.00
26489;BME280;14169;43.684;10.484;2022-12-11T02:35:02;99950.88;;;12.14;100.00
26489;BME280;14169;43.684;10.484;2022-12-11T02:37:31;99947.88;;;12.22;100.00
26489;BME280;14169;43.684;10.484;2022-12-11T02:40:00;99953.28;;;12.19;100.00
26489;BME280;14169;43.684;10.484;2022-12-11T02:42:29;99948.72;;;12.22;100.00
26489;BME280;14169;43.684;10.484;2022-12-11T02:44:58;99951.25;;;12.24;100.00
26489;BME280;14169;43.684;10.484;2022-12-11T02:47:27;99958.19;;;12.25;100.00
26489;BME280;14169;43.684;10.484;2022-12-11T02:49:54;99956.41;;;12.25;100.00
26489;BME280;14169;43.684;10.484;2022-12-11T02:52:24;99964.16;;;12.27;100.00
26489;BME280;14169;43.684;10.484;2022-12-11T02:54:51;99962.31;;;12.29;100.00
26489;BME280;14169;43.684;10.484;2022-12-11T02:57:50;99962.47;;;12.26;100.00
26489;BME280;14169;43.684;10.484;2022-12-11T03:00:17;99949.34;;;12.27;100.00
26489;BME280;14169;43.684;10.484;2022-12-11T03:02:43;99957.09;;;12.29;100.00
26489;BME280;14169;43.684;10.484;2022-12-11T03:05:11;99953.53;;;12.30;100.00
26489;BME280;14169;43.684;10.484;2022-12-11T03:07:39;99959.84;;;12.26;100.00
26489;BME280;14169;43.684;10.484;2022-12-11T03:10:06;99963.50;;;12.23;100.00
26489;BME280;14169;43.684;10.484;2022-12-11T03:12:38;99955.13;;;12.17;100.00
26489;BME280;14169;43.684;10.484;2022-12-11T03:15:08;99960.09;;;12.21;100.00
26489;BME280;14169;43.684;10.484;2022-12-11T03:22:53;99977.75;;;12.16;100.00
26489;BME280;14169;43.684;10.484;2022-12-11T03:25:25;99965.56;;;12.17;100.00
26489;BME280;14169;43.684;10.484;2022-12-11T03:27:57;99962.94;;;12.17;100.00
26489;BME280;14169;43.684;10.484;2022-12-11T03:30:24;99969.69;;;12.21;100.00
26489;BME280;14169;43.684;10.484;2022-12-11T03:32:57;99966.47;;;12.16;100.00
26489;BME280;14169;43.684;10.484;2022-12-11T03:35:37;99967.47;;;12.13;100.00
26489;BME280;14169;43.684;10.484;2022-12-11T03:38:07;99970.09;;;12.13;100.00
26489;BME280;14169;43.684;10.484;2022-12-11T03:40:35;99967.84;;;12.06;100.00
26489;BME280;14169;43.684;10.484;2022-12-11T03:43:03;99965.22;;;12.06;100.00
26489;BME280;14169;43.684;10.484;2022-12-11T03:45:31;99976.06;;;11.98;100.00
26489;BME280;14169;43.684;10.484;2022-12-11T03:47:58;99962.59;;;11.89;100.00
26489;BME280;14169;43.684;10.484;2022-12-11T03:50:27;99959.31;;;11.85;100.00
26489;BME280;14169;43.684;10.484;2022-12-11T03:52:56;99959.22;;;11.87;100.00
26489;BME280;14169;43.684;10.484;2022-12-11T03:55:22;99955.22;;;11.79;100.00
26489;BME280;14169;43.684;10.484;2022-12-11T03:57:49;99957.59;;;11.84;100.00
26489;BME280;14169;43.684;10.484;2022-12-11T04:00:17;99950.47;;;11.70;100.00
26489;BME280;14169;43.684;10.484;2022-12-11T04:02:44;99948.78;;;11.69;100.00
26489;BME280;14169;43.684;10.484;2022-12-11T04:05:29;99946.94;;;11.71;100.00
26489;BME280;14169;43.684;10.484;2022-12-11T04:07:55;99933.94;;;11.70;100.00
26489;BME280;14169;43.684;10.484;2022-12-11T04:10:20;99931.28;;;11.71;100.00
26489;BME280;14169;43.684;10.484;2022-12-11T04:12:45;99930.28;;;11.74;100.00
26489;BME280;14169;43.684;10.484;2022-12-11T04:15:11;99932.28;;;11.69;100.00
26489;BME280;14169;43.684;10.484;2022-12-11T04:17:36;99926.22;;;11.68;100.00
26489;BME280;14169;43.684;10.484;2022-12-11T04:20:20;99925.06;;;11.74;100.00
26489;BME280;14169;43.684;10.484;2022-12-11T04:23:16;99907.63;;;11.74;100.00
26489;BME280;14169;43.684;10.484;2022-12-11T04:26:11;99920.22;;;11.83;100.00
26489;BME280;14169;43.684;10.484;2022-12-11T04:28:38;99918.53;;;11.82;100.00
26489;BME280;14169;43.684;10.484;2022-12-11T04:31:04;99921.22;;;11.81;100.00
26489;BME280;14169;43.684;10.484;2022-12-11T04:33:29;99914.19;;;11.83;100.00
26489;BME280;14169;43.684;10.484;2022-12-11T04:35:59;99920.97;;;11.86;100.00
26489;BME280;14169;43.684;10.484;2022-12-11T04:38:25;99919.31;;;11.85;100.00
26489;BME280;14169;43.684;10.484;2022-12-11T04:41:05;99913.53;;;11.78;100.00
26489;BME280;14169;43.684;10.484;2022-12-11T04:43:31;99912.72;;;11.77;100.00
26489;BME280;14169;43.684;10.484;2022-12-11T04:46:05;99913.63;;;11.76;100.00
26489;BME280;14169;43.684;10.484;2022-12-11T04:48:30;99901.34;;;11.78;100.00
26489;BME280;14169;43.684;10.484;2022-12-11T04:50:57;99902.19;;;11.79;100.00
26489;BME280;14169;43.684;10.484;2022-12-11T04:53:23;99907.25;;;11.82;100.00
26489;BME280;14169;43.684;10.484;2022-12-11T04:55:48;99894.88;;;11.86;100.00
26489;BME280;14169;43.684;10.484;2022-12-11T04:58:14;99894.06;;;11.85;100.00
26489;BME280;14169;43.684;10.484;2022-12-11T05:00:40;99893.91;;;11.88;100.00
26489;BME280;14169;43.684;10.484;2022-12-11T05:03:05;99889.34;;;11.92;100.00
26489;BME280;14169;43.684;10.484;2022-12-11T05:05:31;99901.72;;;11.88;100.00
26489;BME280;14169;43.684;10.484;2022-12-11T05:07:56;99900.19;;;11.84;100.00
26489;BME280;14169;43.684;10.484;2022-12-11T05:10:22;99898.50;;;11.83;100.00
26489;BME280;14169;43.684;10.484;2022-12-11T05:12:47;99895.06;;;11.82;100.00
26489;BME280;14169;43.684;10.484;2022-12-11T05:15:13;99887.22;;;11.82;100.00
26489;BME280;14169;43.684;10.484;2022-12-11T05:17:38;99894.84;;;11.87;100.00
26489;BME280;14169;43.684;10.484;2022-12-11T05:20:04;99888.84;;;11.85;100.00
26489;BME280;14169;43.684;10.484;2022-12-11T05:22:30;99892.13;;;11.89;100.00
26489;BME280;14169;43.684;10.484;2022-12-11T05:24:56;99878.31;;;11.87;100.00
26489;BME280;14169;43.684;10.484;2022-12-11T05:27:22;99885.38;;;11.85;100.00
26489;BME280;14169;43.684;10.484;2022-12-11T05:29:47;99886.28;;;11.83;100.00
26489;BME280;14169;43.684;10.484;2022-12-11T05:32:12;99889.06;;;11.80;100.00
26489;BME280;14169;43.684;10.484;2022-12-11T05:34:38;99887.53;;;11.76;100.00
26489;BME280;14169;43.684;10.484;2022-12-11T05:37:03;99890.16;;;11.76;100.00
26489;BME280;14169;43.684;10.484;2022-12-11T05:39:29;99898.13;;;11.73;100.00
26489;BME280;14169;43.684;10.484;2022-12-11T05:41:54;99903.50;;;11.70;100.00
26489;BME280;14169;43.684;10.484;2022-12-11T05:44:20;99896.53;;;11.71;100.00
26489;BME280;14169;43.684;10.484;2022-12-11T05:46:45;99899.13;;;11.71;100.00
26489;BME280;14169;43.684;10.484;2022-12-11T05:49:10;99894.00;;;11.69;100.00
26489;BME280;14169;43.684;10.484;2022-12-11T05:51:36;99892.28;;;11.68;100.00
26489;BME280;14169;43.684;10.484;2022-12-11T05:54:04;99894.03;;;11.68;100.00
26489;BME280;14169;43.684;10.484;2022-12-11T05:56:31;99897.59;;;11.67;100.00
26489;BME280;14169;43.684;10.484;2022-12-11T05:58:57;99904.44;;;11.69;100.00
26489;BME280;14169;43.684;10.484;2022-12-11T06:03:50;99914.22;;;11.81;100.00
26489;BME280;14169;43.684;10.484;2022-12-11T06:06:17;99906.25;;;11.85;100.00
26489;BME280;14169;43.684;10.484;2022-12-11T06:08:42;99911.31;;;11.88;100.00
26489;BME280;14169;43.684;10.484;2022-12-11T06:11:08;99908.66;;;11.89;100.00
26489;BME280;14169;43.684;10.484;2022-12-11T06:13:34;99907.72;;;11.90;100.00
26489;BME280;14169;43.684;10.484;2022-12-11T06:16:04;99900.72;;;11.91;100.00
26489;BME280;14169;43.684;10.484;2022-12-11T06:18:30;99913.00;;;11.89;100.00
26489;BME280;14169;43.684;10.484;2022-12-11T06:20:56;99909.28;;;11.94;100.00
26489;BME280;14169;43.684;10.484;2022-12-11T06:23:22;99904.75;;;11.98;100.00
26489;BME280;14169;43.684;10.484;2022-12-11T06:25:47;99909.13;;;11.97;100.00
26489;BME280;14169;43.684;10.484;2022-12-11T06:28:12;99908.28;;;11.97;100.00
26489;BME280;14169;43.684;10.484;2022-12-11T06:30:38;99911.75;;;11.97;100.00
26489;BME280;14169;43.684;10.484;2022-12-11T06:33:03;99906.59;;;11.96;100.00
26489;BME280;14169;43.684;10.484;2022-12-11T06:35:29;99905.81;;;11.94;100.00
26489;BME280;14169;43.684;10.484;2022-12-11T06:37:54;99908.38;;;11.95;100.00
26489;BME280;14169;43.684;10.484;2022-12-11T06:40:20;99910.97;;;11.95;100.00
26489;BME280;14169;43.684;10.484;2022-12-11T06:42:45;99902.22;;;11.96;100.00
26489;BME280;14169;43.684;10.484;2022-12-11T06:45:11;99897.97;;;11.94;100.00
26489;BME280;14169;43.684;10.484;2022-12-11T06:47:36;99903.16;;;11.95;100.00
26489;BME280;14169;43.684;10.484;2022-12-11T06:50:02;99895.91;;;12.00;100.00
26489;BME280;14169;43.684;10.484;2022-12-11T06:52:27;99897.63;;;12.01;100.00
26489;BME280;14169;43.684;10.484;2022-12-11T06:54:53;99910.59;;;12.03;100.00
26489;BME280;14169;43.684;10.484;2022-12-11T06:57:19;99909.81;;;12.01;100.00
26489;BME280;14169;43.684;10.484;2022-12-11T06:59:44;99911.56;;;12.00;100.00
26489;BME280;14169;43.684;10.484;2022-12-11T07:02:14;99928.63;;;12.07;100.00
26489;BME280;14169;43.684;10.484;2022-12-11T07:04:40;99917.94;;;12.12;100.00
26489;BME280;14169;43.684;10.484;2022-12-11T07:07:06;99926.16;;;12.21;100.00
26489;BME280;14169;43.684;10.484;2022-12-11T07:09:32;99927.69;;;12.25;100.00
26489;BME280;14169;43.684;10.484;2022-12-11T07:11:58;99917.59;;;12.35;100.00
26489;BME280;14169;43.684;10.484;2022-12-11T07:14:23;99922.16;;;12.31;100.00
26489;BME280;14169;43.684;10.484;2022-12-11T07:16:49;99934.50;;;12.28;100.00
26489;BME280;14169;43.684;10.484;2022-12-11T07:19:14;99940.75;;;12.25;100.00
26489;BME280;14169;43.684;10.484;2022-12-11T07:21:40;99935.44;;;12.27;100.00
26489;BME280;14169;43.684;10.484;2022-12-11T07:24:06;99940.66;;;12.27;100.00
26489;BME280;14169;43.684;10.484;2022-12-11T07:26:32;99946.47;;;12.32;100.00
26489;BME280;14169;43.684;10.484;2022-12-11T07:28:59;99943.63;;;12.36;100.00
26489;BME280;14169;43.684;10.484;2022-12-11T07:31:26;99951.50;;;12.52;100.00
26489;BME280;14169;43.684;10.484;2022-12-11T07:33:55;99940.66;;;12.59;100.00
26489;BME280;14169;43.684;10.484;2022-12-11T07:36:21;99950.19;;;12.60;100.00
26489;BME280;14169;43.684;10.484;2022-12-11T07:38:47;99953.34;;;12.67;100.00
26489;BME280;14169;43.684;10.484;2022-12-11T07:41:14;99958.16;;;12.75;100.00
26489;BME280;14169;43.684;10.484;2022-12-11T07:43:42;99962.22;;;12.96;100.00
26489;BME280;14169;43.684;10.484;2022-12-11T07:46:16;99960.22;;;13.01;100.00
26489;BME280;14169;43.684;10.484;2022-12-11T07:48:44;99959.56;;;13.13;100.00
26489;BME280;14169;43.684;10.484;2022-12-11T07:51:15;99954.34;;;13.28;100.00
26489;BME280;14169;43.684;10.484;2022-12-11T07:53:41;99973.56;;;13.27;100.00
26489;BME280;14169;43.684;10.484;2022-12-11T07:56:07;99968.84;;;13.49;100.00
26489;BME280;14169;43.684;10.484;2022-12-11T07:58:33;99968.25;;;13.44;100.00
26489;BME280;14169;43.684;10.484;2022-12-11T08:00:59;99985.13;;;13.55;100.00
26489;BME280;14169;43.684;10.484;2022-12-11T08:03:24;99985.47;;;13.64;100.00
26489;BME280;14169;43.684;10.484;2022-12-11T08:05:50;99972.53;;;13.77;100.00
26489;BME280;14169;43.684;10.484;2022-12-11T08:08:17;99962.72;;;13.80;100.00
26489;BME280;14169;43.684;10.484;2022-12-11T08:10:43;99943.63;;;14.08;100.00
26489;BME280;14169;43.684;10.484;2022-12-11T08:13:09;99932.97;;;14.11;100.00
26489;BME280;14169;43.684;10.484;2022-12-11T08:15:35;99938.25;;;14.25;100.00
26489;BME280;14169;43.684;10.484;2022-12-11T08:18:00;99937.03;;;14.30;100.00
26489;BME280;14169;43.684;10.484;2022-12-11T08:20:26;99913.19;;;14.49;100.00
26489;BME280;14169;43.684;10.484;2022-12-11T08:22:51;99913.75;;;14.68;100.00
26489;BME280;14169;43.684;10.484;2022-12-11T08:25:17;99915.63;;;14.80;100.00
26489;BME280;14169;43.684;10.484;2022-12-11T08:27:42;99909.63;;;14.78;100.00
26489;BME280;14169;43.684;10.484;2022-12-11T08:30:09;99908.31;;;14.71;100.00
26489;BME280;14169;43.684;10.484;2022-12-11T08:32:35;99909.91;;;14.74;100.00
26489;BME280;14169;43.684;10.484;2022-12-11T08:35:00;99911.88;;;14.70;100.00
26489;BME280;14169;43.684;10.484;2022-12-11T08:37:26;99906.06;;;14.79;100.00
26489;BME280;14169;43.684;10.484;2022-12-11T08:39:51;99903.59;;;15.04;100.00
26489;BME280;14169;43.684;10.484;2022-12-11T08:42:17;99907.88;;;15.05;100.00
26489;BME280;14169;43.684;10.484;2022-12-11T08:44:42;99904.09;;;15.24;100.00
26489;BME280;14169;43.684;10.484;2022-12-11T08:47:07;99891.59;;;15.27;100.00
26489;BME280;14169;43.684;10.484;2022-12-11T08:49:35;99891.50;;;15.02;100.00
26489;BME280;14169;43.684;10.484;2022-12-11T08:52:04;99901.00;;;14.90;100.00
26489;BME280;14169;43.684;10.484;2022-12-11T08:54:29;99911.78;;;15.27;100.00
26489;BME280;14169;43.684;10.484;2022-12-11T08:56:55;99903.94;;;15.12;100.00
26489;BME280;14169;43.684;10.484;2022-12-11T08:59:20;99906.75;;;14.69;100.00
26489;BME280;14169;43.684;10.484;2022-12-11T09:01:46;99910.78;;;14.46;100.00
26489;BME280;14169;43.684;10.484;2022-12-11T09:04:11;99927.41;;;14.31;100.00
26489;BME280;14169;43.684;10.484;2022-12-11T09:06:36;99928.13;;;14.19;100.00
26489;BME280;14169;43.684;10.484;2022-12-11T09:09:02;99935.66;;;14.09;100.00
26489;BME280;14169;43.684;10.484;2022-12-11T09:11:31;99941.72;;;13.96;100.00
26489;BME280;14169;43.684;10.484;2022-12-11T09:13:56;99939.75;;;13.99;100.00
26489;BME280;14169;43.684;10.484;2022-12-11T09:16:24;99936.53;;;14.10;100.00
26489;BME280;14169;43.684;10.484;2022-12-11T09:18:51;99942.63;;;14.24;100.00
26489;BME280;14169;43.684;10.484;2022-12-11T09:21:21;99937.28;;;14.26;100.00
26489;BME280;14169;43.684;10.484;2022-12-11T09:23:47;99944.94;;;14.73;100.00
26489;BME280;14169;43.684;10.484;2022-12-11T09:26:15;99930.34;;;15.24;100.00
26489;BME280;14169;43.684;10.484;2022-12-11T09:28:41;99934.50;;;15.67;100.00
26489;BME280;14169;43.684;10.484;2022-12-11T09:31:13;99920.09;;;15.99;100.00
26489;BME280;14169;43.684;10.484;2022-12-11T09:33:39;99916.97;;;16.19;100.00
26489;BME280;14169;43.684;10.484;2022-12-11T09:36:05;99910.84;;;15.93;100.00
26489;BME280;14169;43.684;10.484;2022-12-11T09:38:31;99910.88;;;16.31;100.00
26489;BME280;14169;43.684;10.484;2022-12-11T09:40:57;99892.91;;;16.38;100.00
26489;BME280;14169;43.684;10.484;2022-12-11T09:46:07;99893.59;;;15.89;100.00
26489;BME280;14169;43.684;10.484;2022-12-11T09:48:34;99895.06;;;15.68;100.00
26489;BME280;14169;43.684;10.484;2022-12-11T09:51:07;99899.38;;;15.43;100.00
26489;BME280;14169;43.684;10.484;2022-12-11T09:53:36;99900.94;;;15.18;100.00
26489;BME280;14169;43.684;10.484;2022-12-11T10:02:02;99899.84;;;15.08;100.00
26489;BME280;14169;43.684;10.484;2022-12-11T10:04:56;99894.78;;;15.05;100.00
26489;BME280;14169;43.684;10.484;2022-12-11T10:13:12;99877.38;;;15.58;100.00
26489;BME280;14169;43.684;10.484;2022-12-11T10:18:22;99846.91;;;17.28;100.00
26489;BME280;14169;43.684;10.484;2022-12-11T10:20:50;99830.63;;;17.00;100.00
26489;BME280;14169;43.684;10.484;2022-12-11T10:23:39;99829.72;;;16.88;100.00
26489;BME280;14169;43.684;10.484;2022-12-11T10:26:11;99825.19;;;16.29;100.00
26489;BME280;14169;43.684;10.484;2022-12-11T10:28:40;99826.34;;;16.50;100.00
26489;BME280;14169;43.684;10.484;2022-12-11T10:36:36;99842.47;;;15.43;100.00
26489;BME280;14169;43.684;10.484;2022-12-11T10:39:03;99848.47;;;15.18;100.00
26489;BME280;14169;43.684;10.484;2022-12-11T10:41:43;99854.25;;;14.97;100.00
26489;BME280;14169;43.684;10.484;2022-12-11T10:44:25;99859.97;;;14.89;100.00
26489;BME280;14169;43.684;10.484;2022-12-11T10:47:20;99855.69;;;14.74;100.00
26489;BME280;14169;43.684;10.484;2022-12-11T10:50:00;99864.06;;;14.67;100.00
26489;BME280;14169;43.684;10.484;2022-12-11T10:52:36;99861.91;;;15.53;100.00
26489;BME280;14169;43.684;10.484;2022-12-11T10:55:15;99875.66;;;16.21;100.00
26489;BME280;14169;43.684;10.484;2022-12-11T10:57:41;99866.91;;;16.71;100.00
26489;BME280;14169;43.684;10.484;2022-12-11T11:00:28;99869.88;;;17.26;100.00
26489;BME280;14169;43.684;10.484;2022-12-11T11:02:54;99847.97;;;17.49;100.00
26489;BME280;14169;43.684;10.484;2022-12-11T11:05:46;99845.88;;;17.54;100.00
26489;BME280;14169;43.684;10.484;2022-12-11T11:08:15;99850.19;;;17.66;100.00
26489;BME280;14169;43.684;10.484;2022-12-11T11:10:51;99843.66;;;17.83;100.00
26489;BME280;14169;43.684;10.484;2022-12-11T11:13:20;99854.06;;;17.74;100.00
26489;BME280;14169;43.684;10.484;2022-12-11T11:15:46;99838.69;;;18.02;100.00
26489;BME280;14169;43.684;10.484;2022-12-11T11:18:22;99841.81;;;17.73;100.00
26489;BME280;14169;43.684;10.484;2022-12-11T11:20:50;99842.59;;;17.51;100.00
26489;BME280;14169;43.684;10.484;2022-12-11T11:23:18;99851.09;;;17.31;100.00
26489;BME280;14169;43.684;10.484;2022-12-11T11:25:54;99850.63;;;17.26;100.00
26489;BME280;14169;43.684;10.484;2022-12-11T11:28:26;99845.47;;;17.24;100.00
26489;BME280;14169;43.684;10.484;2022-12-11T11:31:03;99849.28;;;17.20;100.00
26489;BME280;14169;43.684;10.484;2022-12-11T11:33:30;99845.63;;;16.87;100.00
26489;BME280;14169;43.684;10.484;2022-12-11T11:36:03;99859.25;;;16.55;100.00
26489;BME280;14169;43.684;10.484;2022-12-11T11:38:40;99854.13;;;16.41;100.00
26489;BME280;14169;43.684;10.484;2022-12-11T11:41:23;99857.28;;;16.46;100.00
26489;BME280;14169;43.684;10.484;2022-12-11T11:43:58;99854.97;;;16.17;100.00
26489;BME280;14169;43.684;10.484;2022-12-11T11:57:28;99845.97;;;14.76;100.00
26489;BME280;14169;43.684;10.484;2022-12-11T12:00:05;99849.09;;;14.41;100.00
26489;BME280;14169;43.684;10.484;2022-12-11T12:02:35;99858.34;;;14.46;100.00
26489;BME280;14169;43.684;10.484;2022-12-11T12:05:01;99857.19;;;14.22;100.00
26489;BME280;14169;43.684;10.484;2022-12-11T12:07:51;99855.31;;;13.96;100.00
26489;BME280;14169;43.684;10.484;2022-12-11T12:10:33;99864.25;;;13.78;100.00
26489;BME280;14169;43.684;10.484;2022-12-11T12:15:56;99878.00;;;13.52;100.00
26489;BME280;14169;43.684;10.484;2022-12-11T12:26:36;99884.38;;;14.35;100.00
26489;BME280;14169;43.684;10.484;2022-12-11T12:34:42;99893.53;;;14.84;100.00
26489;BME280;14169;43.684;10.484;2022-12-11T12:40:24;99892.75;;;15.89;100.00
26489;BME280;14169;43.684;10.484;2022-12-11T12:48:02;99911.75;;;16.44;100.00
26489;BME280;14169;43.684;10.484;2022-12-11T12:50:36;99910.06;;;16.56;100.00
26489;BME280;14169;43.684;10.484;2022-12-11T12:53:03;99899.78;;;16.40;100.00
26489;BME280;14169;43.684;10.484;2022-12-11T12:55:30;99902.69;;;16.36;100.00
26489;BME280;14169;43.684;10.484;2022-12-11T12:58:06;99897.00;;;16.29;100.00
26489;BME280;14169;43.684;10.484;2022-12-11T13:03:14;99913.28;;;15.31;100.00
26489;BME280;14169;43.684;10.484;2022-12-11T13:05:43;99921.78;;;14.93;100.00
26489;BME280;14169;43.684;10.484;2022-12-11T13:08:10;99919.75;;;14.84;100.00
26489;BME280;14169;43.684;10.484;2022-12-11T13:10:40;99924.63;;;14.76;100.00
26489;BME280;14169;43.684;10.484;2022-12-11T13:13:31;99915.50;;;14.96;100.00
26489;BME280;14169;43.684;10.484;2022-12-11T13:18:44;99923.66;;;14.91;100.00
26489;BME280;14169;43.684;10.484;2022-12-11T13:23:53;99939.13;;;13.51;100.00
26489;BME280;14169;43.684;10.484;2022-12-11T13:26:29;99949.91;;;13.13;100.00
26489;BME280;14169;43.684;10.484;2022-12-11T13:28:55;99956.00;;;12.98;100.00
26489;BME280;14169;43.684;10.484;2022-12-11T13:31:30;99952.84;;;12.92;100.00
26489;BME280;14169;43.684;10.484;2022-12-11T13:34:06;99962.75;;;13.02;100.00
26489;BME280;14169;43.684;10.484;2022-12-11T13:36:34;99963.47;;;13.37;100.00
26489;BME280;14169;43.684;10.484;2022-12-11T13:39:07;99967.59;;;13.41;100.00
26489;BME280;14169;43.684;10.484;2022-12-11T13:41:45;99963.28;;;13.40;100.00
26489;BME280;14169;43.684;10.484;2022-12-11T13:44:19;99973.41;;;13.30;100.00
26489;BME280;14169;43.684;10.484;2022-12-11T13:46:48;99982.00;;;13.17;100.00
26489;BME280;14169;43.684;10.484;2022-12-11T13:49:23;99978.22;;;12.90;100.00
26489;BME280;14169;43.684;10.484;2022-12-11T13:51:54;99979.81;;;12.77;100.00
26489;BME280;14169;43.684;10.484;2022-12-11T13:54:20;99988.78;;;12.55;100.00
26489;BME280;14169;43.684;10.484;2022-12-11T13:56:58;99993.09;;;12.56;100.00
26489;BME280;14169;43.684;10.484;2022-12-11T13:59:54;99991.56;;;12.52;100.00
26489;BME280;14169;43.684;10.484;2022-12-11T14:04:54;99998.91;;;12.61;100.00
26489;BME280;14169;43.684;10.484;2022-12-11T14:07:30;99999.63;;;12.48;100.00
26489;BME280;14169;43.684;10.484;2022-12-11T14:10:21;100008.13;;;12.51;100.00
26489;BME280;14169;43.684;10.484;2022-12-11T14:13:00;100016.31;;;12.78;100.00
26489;BME280;14169;43.684;10.484;2022-12-11T14:15:28;100024.47;;;12.89;100.00
26489;BME280;14169;43.684;10.484;2022-12-11T14:17:55;100024.41;;;12.74;100.00
26489;BME280;14169;43.684;10.484;2022-12-11T14:20:28;100025.59;;;13.01;100.00